Time;durP1;ratioP1;P1;durP2;ratioP2;P2;SDS_P1;SDS_P2;PMS_P1;PMS_P2;Temp;Humidity;BMP_temperature;BMP_pressure;BME280_temperature;BME280_humidity;BME280_pressure;Samples;Min_cycle;Max_cycle;Signal;HPM_P1;HPM_P2
2021/10/12 00:00:29;;;;;;;45.53;30.07;;;10.90;99.90;;;;;;4999147;28;20189;-62
2021/10/12 00:02:55;;;;;;;38.77;28.63;;;11.00;99.90;;;;;;4998486;28;20196;-62
2021/10/12 00:05:20;;;;;;;45.37;29.80;;;11.10;99.90;;;;;;5004199;28;20217;-61
2021/10/12 00:07:46;;;;;;;45.13;28.20;;;11.10;99.90;;;;;;4997056;28;20222;-62
2021/10/12 00:10:13;;;;;;;44.60;29.13;;;11.10;99.90;;;;;;4999395;28;20205;-61
2021/10/12 00:12:38;;;;;;;41.13;27.23;;;11.10;99.90;;;;;;5001972;28;20464;-62
2021/10/12 00:15:06;;;;;;;38.93;27.40;;;11.10;99.90;;;;;;4998807;28;20594;-62
2021/10/12 00:17:31;;;;;;;40.50;27.87;;;11.10;99.90;;;;;;5003486;28;20300;-62
2021/10/12 00:19:57;;;;;;;43.37;29.40;;;11.10;99.90;;;;;;5003831;28;20539;-62
2021/10/12 00:22:23;;;;;;;43.40;28.80;;;11.00;99.90;;;;;;4999972;28;20198;-63
2021/10/12 00:24:48;;;;;;;45.73;30.10;;;11.00;99.90;;;;;;5002499;28;20424;-63
2021/10/12 00:27:14;;;;;;;47.60;29.90;;;10.90;99.90;;;;;;4995671;28;20213;-62
2021/10/12 00:29:40;;;;;;;49.17;30.80;;;10.80;99.90;;;;;;4999588;28;20215;-62
2021/10/12 00:32:06;;;;;;;47.17;30.10;;;10.80;99.90;;;;;;5001168;28;20193;-62
2021/10/12 00:34:31;;;;;;;46.20;29.87;;;10.80;99.90;;;;;;5003307;28;20193;-62
2021/10/12 00:36:57;;;;;;;48.80;31.90;;;10.80;99.90;;;;;;5003633;28;20482;-63
2021/10/12 00:39:23;;;;;;;52.77;32.83;;;10.90;99.90;;;;;;5005874;28;20194;-62
2021/10/12 00:41:48;;;;;;;49.00;32.47;;;10.90;99.90;;;;;;5013852;28;20201;-62
2021/10/12 00:44:14;;;;;;;46.03;33.07;;;10.90;99.90;;;;;;5002202;28;20252;-62
2021/10/12 00:46:40;;;;;;;52.70;31.97;;;10.90;99.90;;;;;;5005116;28;20181;-62
2021/10/12 00:49:06;;;;;;;51.93;29.83;;;10.90;99.90;;;;;;5008108;28;20254;-62
2021/10/12 00:51:31;;;;;;;52.47;31.60;;;10.80;99.90;;;;;;5002148;28;20185;-62
2021/10/12 00:53:57;;;;;;;46.90;31.73;;;10.80;99.90;;;;;;5006772;28;20261;-62
2021/10/12 00:56:23;;;;;;;47.67;30.47;;;10.90;99.90;;;;;;5003475;28;20199;-62
2021/10/12 00:58:49;;;;;;;48.40;31.53;;;10.90;99.90;;;;;;5003787;28;21086;-62
2021/10/12 01:01:15;;;;;;;55.33;32.60;;;10.80;99.90;;;;;;5006817;28;20750;-63
2021/10/12 01:03:40;;;;;;;48.67;31.20;;;10.80;99.90;;;;;;5004533;28;20462;-61
2021/10/12 01:06:07;;;;;;;44.10;30.17;;;10.70;99.90;;;;;;5008987;28;20216;-62
2021/10/12 01:08:33;;;;;;;40.33;29.20;;;10.70;99.90;;;;;;5002422;28;20738;-62
2021/10/12 01:10:58;;;;;;;47.90;28.83;;;10.70;99.90;;;;;;5009330;28;20436;-61
2021/10/12 01:13:25;;;;;;;43.40;27.63;;;10.80;99.90;;;;;;5004429;28;20249;-61
2021/10/12 01:15:51;;;;;;;52.63;30.00;;;10.80;99.90;;;;;;5006966;28;20443;-62
2021/10/12 01:18:18;;;;;;;46.53;32.33;;;10.90;99.90;;;;;;5002411;28;20483;-62
2021/10/12 01:20:44;;;;;;;45.13;30.83;;;10.90;99.90;;;;;;5006739;28;20888;-62
2021/10/12 01:23:12;;;;;;;47.10;29.77;;;10.80;99.90;;;;;;5006085;28;20550;-61
2021/10/12 01:25:39;;;;;;;49.07;30.70;;;10.80;99.90;;;;;;5000619;28;20485;-61
2021/10/12 01:28:08;;;;;;;50.57;32.80;;;10.80;99.90;;;;;;5003255;28;20453;-62
2021/10/12 01:30:38;;;;;;;48.50;30.80;;;10.90;99.90;;;;;;5007211;28;20444;-62
2021/10/12 01:33:05;;;;;;;52.00;31.90;;;10.90;99.90;;;;;;5006742;28;20459;-62
2021/10/12 01:35:32;;;;;;;46.70;31.40;;;11.00;99.90;;;;;;5002339;28;20452;-62
2021/10/12 01:37:58;;;;;;;49.27;31.23;;;11.00;99.90;;;;;;5004541;28;20570;-62
2021/10/12 01:40:23;;;;;;;48.87;32.03;;;10.90;99.90;;;;;;5001959;28;20884;-62
2021/10/12 01:42:49;;;;;;;52.43;31.03;;;10.90;99.90;;;;;;5002327;28;20501;-61
2021/10/12 01:45:15;;;;;;;49.47;32.00;;;10.90;99.90;;;;;;5001698;28;20232;-62
2021/10/12 01:47:43;;;;;;;53.57;33.47;;;10.90;99.90;;;;;;5002748;28;20209;-62
2021/10/12 01:50:11;;;;;;;58.10;32.63;;;10.90;99.90;;;;;;5004679;28;20451;-62
2021/10/12 01:52:38;;;;;;;56.47;33.20;;;11.00;99.90;;;;;;5009055;28;21236;-62
2021/10/12 01:55:05;;;;;;;49.93;33.00;;;10.90;99.90;;;;;;5001055;28;20839;-62
2021/10/12 01:57:31;;;;;;;53.77;32.80;;;10.90;99.90;;;;;;5004417;28;20463;-62
2021/10/12 01:59:57;;;;;;;47.77;33.20;;;10.90;99.90;;;;;;5003598;28;20455;-62
2021/10/12 02:02:22;;;;;;;52.17;33.70;;;11.00;99.90;;;;;;5002385;28;20525;-61
2021/10/12 02:04:48;;;;;;;50.33;31.60;;;11.00;99.90;;;;;;5005537;28;20580;-62
2021/10/12 02:07:14;;;;;;;48.07;31.03;;;11.10;99.90;;;;;;5006880;28;20284;-62
2021/10/12 02:09:40;;;;;;;50.83;32.20;;;11.10;99.90;;;;;;5003529;28;20279;-62
2021/10/12 02:12:06;;;;;;;44.90;28.17;;;11.20;99.90;;;;;;5002051;28;20561;-62
2021/10/12 02:14:31;;;;;;;45.13;30.10;;;11.10;99.90;;;;;;5004119;28;21084;-63
2021/10/12 02:16:57;;;;;;;46.13;29.37;;;11.20;99.90;;;;;;5003591;28;20519;-62
2021/10/12 02:19:23;;;;;;;47.60;31.10;;;11.10;99.90;;;;;;5003005;28;20196;-62
2021/10/12 02:21:49;;;;;;;42.67;29.50;;;11.10;99.90;;;;;;5006400;28;20201;-62
2021/10/12 02:24:15;;;;;;;45.27;30.07;;;11.10;99.90;;;;;;5001180;28;20432;-61
2021/10/12 02:26:40;;;;;;;46.10;30.43;;;11.20;99.90;;;;;;5002216;28;20189;-63
2021/10/12 02:29:06;;;;;;;48.43;29.60;;;11.20;99.90;;;;;;5010232;28;21000;-62
2021/10/12 02:31:31;;;;;;;48.90;30.23;;;11.20;99.90;;;;;;5001738;28;20193;-62
2021/10/12 02:33:57;;;;;;;47.43;31.50;;;11.20;99.90;;;;;;5002312;28;20608;-61
2021/10/12 02:36:23;;;;;;;44.60;29.33;;;11.10;99.90;;;;;;5002761;28;20674;-62
2021/10/12 02:38:48;;;;;;;44.47;28.70;;;11.10;99.90;;;;;;5000052;28;20236;-62
2021/10/12 02:41:15;;;;;;;50.57;28.57;;;11.00;99.90;;;;;;4999598;28;20205;-61
2021/10/12 02:43:40;;;;;;;47.97;29.53;;;11.00;99.90;;;;;;5003108;28;20193;-61
2021/10/12 02:46:06;;;;;;;44.37;28.87;;;11.00;99.90;;;;;;5002834;28;21068;-62
2021/10/12 02:48:32;;;;;;;44.90;28.50;;;11.00;99.90;;;;;;5001506;28;20937;-62
2021/10/12 02:50:57;;;;;;;42.07;27.47;;;11.00;99.90;;;;;;5001311;28;20424;-61
2021/10/12 02:53:23;;;;;;;54.40;29.27;;;11.00;99.90;;;;;;5002233;28;22159;-61
2021/10/12 02:55:49;;;;;;;47.47;29.17;;;11.00;99.90;;;;;;5003251;28;20230;-61
2021/10/12 02:58:14;;;;;;;43.17;29.00;;;11.10;99.90;;;;;;5001186;28;20303;-62
2021/10/12 03:00:40;;;;;;;58.80;32.77;;;10.90;99.90;;;;;;5003983;28;20242;-62
2021/10/12 03:03:08;;;;;;;44.73;28.20;;;11.00;99.90;;;;;;5004554;28;20723;-62
2021/10/12 03:05:34;;;;;;;50.93;28.40;;;11.00;99.90;;;;;;5002405;28;20734;-62
2021/10/12 03:08:00;;;;;;;46.67;30.20;;;11.00;99.90;;;;;;5003915;28;20464;-62
2021/10/12 03:10:25;;;;;;;49.17;29.60;;;10.90;99.90;;;;;;5001425;28;20185;-62
2021/10/12 03:12:51;;;;;;;47.00;27.53;;;10.90;99.90;;;;;;5006223;28;20188;-62
2021/10/12 03:15:17;;;;;;;45.13;27.83;;;10.90;99.90;;;;;;4999138;28;20284;-63
2021/10/12 03:17:42;;;;;;;45.43;27.13;;;10.80;99.90;;;;;;4997868;28;20644;-62
2021/10/12 03:20:08;;;;;;;44.30;28.20;;;10.80;99.90;;;;;;5001466;28;20239;-63
2021/10/12 03:22:34;;;;;;;43.83;27.40;;;10.80;99.90;;;;;;5002965;28;20189;-63
2021/10/12 03:25:00;;;;;;;47.73;29.57;;;10.80;99.90;;;;;;5003146;28;20473;-62
2021/10/12 03:27:25;;;;;;;49.27;27.40;;;10.80;99.90;;;;;;5003102;28;20212;-62
2021/10/12 03:29:51;;;;;;;42.60;28.50;;;10.90;99.90;;;;;;5002592;28;20190;-63
2021/10/12 03:32:16;;;;;;;40.70;29.07;;;10.80;99.90;;;;;;5003341;28;20247;-62
2021/10/12 03:34:42;;;;;;;45.27;27.90;;;10.90;99.90;;;;;;5002189;28;20275;-62
2021/10/12 03:37:08;;;;;;;46.77;27.40;;;10.90;99.90;;;;;;5002473;28;20200;-62
2021/10/12 03:39:33;;;;;;;48.20;28.97;;;10.90;99.90;;;;;;4997781;28;20224;-62
2021/10/12 03:41:59;;;;;;;42.83;28.70;;;10.80;99.90;;;;;;5001032;28;20205;-63
2021/10/12 03:44:25;;;;;;;48.07;30.40;;;10.80;99.90;;;;;;5003278;28;20280;-62
2021/10/12 03:46:51;;;;;;;46.33;28.43;;;10.90;99.90;;;;;;5002072;28;20189;-62
2021/10/12 03:49:17;;;;;;;50.73;29.30;;;10.80;99.90;;;;;;4998575;28;20675;-61
2021/10/12 03:51:43;;;;;;;46.97;30.00;;;10.80;99.90;;;;;;5003712;28;20450;-62
2021/10/12 03:54:13;;;;;;;45.80;30.27;;;10.80;99.90;;;;;;5002456;28;20534;-62
2021/10/12 03:56:39;;;;;;;43.87;29.67;;;10.80;99.90;;;;;;5001411;28;20938;-62
2021/10/12 03:59:05;;;;;;;52.37;31.87;;;10.90;99.90;;;;;;5000918;28;20460;-61
2021/10/12 04:01:32;;;;;;;56.00;31.80;;;10.80;99.90;;;;;;5004457;28;20428;-62
2021/10/12 04:03:59;;;;;;;43.47;29.93;;;10.80;99.90;;;;;;5005668;28;20440;-61
2021/10/12 04:06:24;;;;;;;49.37;30.73;;;10.80;99.90;;;;;;5003555;28;20978;-61
2021/10/12 04:08:50;;;;;;;50.33;30.17;;;10.80;99.90;;;;;;5000402;28;20452;-62
2021/10/12 04:11:15;;;;;;;52.33;30.93;;;10.80;99.90;;;;;;5000557;28;20260;-62
2021/10/12 04:13:41;;;;;;;51.30;30.27;;;10.90;99.90;;;;;;4999322;28;20599;-62
2021/10/12 04:16:07;;;;;;;45.90;29.40;;;10.80;99.90;;;;;;5000073;28;20680;-62
2021/10/12 04:18:32;;;;;;;57.13;31.87;;;10.70;99.90;;;;;;4998726;28;20445;-62
2021/10/12 04:20:58;;;;;;;49.83;30.30;;;10.70;99.90;;;;;;5008233;28;20189;-62
2021/10/12 04:23:24;;;;;;;46.90;30.83;;;10.70;99.90;;;;;;5002066;28;20624;-62
2021/10/12 04:25:50;;;;;;;47.50;30.27;;;10.70;99.90;;;;;;4999829;28;20220;-62
2021/10/12 04:28:15;;;;;;;44.03;29.00;;;10.70;99.90;;;;;;5003110;28;20451;-62
2021/10/12 04:30:43;;;;;;;50.20;28.97;;;10.70;99.90;;;;;;4998825;28;20481;-63
2021/10/12 04:33:10;;;;;;;61.80;34.40;;;10.70;99.90;;;;;;5004017;28;20300;-61
2021/10/12 04:35:36;;;;;;;53.20;31.70;;;10.60;99.90;;;;;;5002933;28;20523;-62
2021/10/12 04:38:02;;;;;;;44.83;30.43;;;10.60;99.90;;;;;;5005853;28;20470;-63
2021/10/12 04:40:29;;;;;;;51.27;29.33;;;10.60;99.90;;;;;;5006098;28;20613;-62
2021/10/12 04:42:56;;;;;;;50.83;30.60;;;10.70;99.90;;;;;;5000579;28;20448;-62
2021/10/12 04:45:22;;;;;;;52.70;31.40;;;10.70;99.90;;;;;;5001222;28;20499;-62
2021/10/12 04:47:48;;;;;;;46.40;30.87;;;10.70;99.90;;;;;;4998885;28;20452;-62
2021/10/12 04:50:14;;;;;;;50.00;29.33;;;10.70;99.90;;;;;;4996617;28;20443;-62
2021/10/12 04:52:42;;;;;;;54.80;31.97;;;10.70;99.90;;;;;;4999289;28;20247;-62
2021/10/12 04:55:08;;;;;;;51.20;32.17;;;10.70;99.90;;;;;;4998841;28;20193;-62
2021/10/12 04:57:33;;;;;;;47.70;30.37;;;10.70;99.90;;;;;;5001119;28;20535;-62
2021/10/12 04:59:59;;;;;;;48.03;30.40;;;10.80;99.90;;;;;;5001349;28;20447;-62
2021/10/12 05:02:24;;;;;;;45.90;30.40;;;10.80;99.90;;;;;;5001973;28;20679;-62
2021/10/12 05:04:50;;;;;;;44.87;29.27;;;10.80;99.90;;;;;;5002614;28;20209;-62
2021/10/12 05:07:16;;;;;;;46.17;30.10;;;10.80;99.90;;;;;;5000994;28;20201;-62
2021/10/12 05:09:41;;;;;;;50.47;31.70;;;10.70;99.90;;;;;;4996484;28;20193;-62
2021/10/12 05:12:07;;;;;;;52.70;30.53;;;10.70;99.90;;;;;;5003816;28;20201;-61
2021/10/12 05:14:33;;;;;;;46.97;30.73;;;10.70;99.90;;;;;;5001402;28;20204;-61
2021/10/12 05:17:00;;;;;;;44.20;31.43;;;10.70;99.90;;;;;;5000089;28;20198;-61
2021/10/12 05:19:26;;;;;;;47.00;29.80;;;10.80;99.90;;;;;;5004301;28;20216;-62
2021/10/12 05:21:52;;;;;;;47.80;30.47;;;10.80;99.90;;;;;;4997660;28;20440;-60
2021/10/12 05:24:17;;;;;;;52.97;31.97;;;10.80;99.90;;;;;;5005228;28;20444;-62
2021/10/12 05:26:43;;;;;;;51.53;32.00;;;10.70;99.90;;;;;;5002215;28;20256;-62
2021/10/12 05:29:12;;;;;;;52.33;32.93;;;10.80;99.90;;;;;;5003415;28;20221;-62
2021/10/12 05:31:39;;;;;;;49.77;30.33;;;10.70;99.90;;;;;;5004611;28;20697;-62
2021/10/12 05:34:06;;;;;;;47.07;30.83;;;10.70;99.90;;;;;;5000201;28;20478;-61
2021/10/12 05:36:31;;;;;;;48.00;31.80;;;10.70;99.90;;;;;;5003444;28;20451;-62
2021/10/12 05:38:57;;;;;;;48.87;31.80;;;10.70;99.90;;;;;;5003904;28;21833;-62
2021/10/12 05:41:22;;;;;;;51.20;32.37;;;10.70;99.90;;;;;;5001000;28;20244;-61
2021/10/12 05:43:48;;;;;;;51.87;33.53;;;10.70;99.90;;;;;;5006237;28;20200;-62
2021/10/12 05:46:14;;;;;;;59.50;32.57;;;10.60;99.90;;;;;;5003265;28;20209;-62
2021/10/12 05:48:39;;;;;;;52.13;32.00;;;10.50;99.90;;;;;;5002126;28;20235;-60
2021/10/12 05:51:08;;;;;;;57.63;33.00;;;10.60;99.90;;;;;;5003164;28;20205;-61
2021/10/12 05:56:12;;;;;;;51.63;33.67;;;10.70;99.90;;;;;;5000233;28;20526;-62
2021/10/12 05:58:48;;;;;;;49.43;30.20;;;10.50;99.90;;;;;;4999246;28;20479;-62
2021/10/12 06:01:14;;;;;;;52.93;31.50;;;10.60;99.90;;;;;;5003618;28;20598;-61
2021/10/12 06:03:40;;;;;;;46.60;30.17;;;10.70;99.90;;;;;;4997241;28;20444;-62
2021/10/12 06:06:06;;;;;;;48.93;30.83;;;10.70;99.90;;;;;;5001143;28;20478;-62
2021/10/12 06:08:33;;;;;;;55.07;32.07;;;10.50;99.90;;;;;;4998718;28;20618;-62
2021/10/12 06:11:01;;;;;;;47.30;30.20;;;10.60;99.90;;;;;;4997817;28;20535;-62
2021/10/12 06:13:27;;;;;;;47.67;31.70;;;10.70;99.90;;;;;;4998808;28;20436;-61
2021/10/12 06:15:53;;;;;;;52.80;33.57;;;10.60;99.90;;;;;;4999058;28;20444;-62
2021/10/12 06:18:19;;;;;;;47.50;28.10;;;10.60;99.90;;;;;;5003688;28;20473;-62
2021/10/12 06:20:46;;;;;;;52.23;30.93;;;10.60;99.90;;;;;;5007258;28;20870;-62
2021/10/12 06:23:12;;;;;;;50.93;29.97;;;10.70;99.90;;;;;;4998439;28;21012;-63
2021/10/12 06:25:37;;;;;;;44.40;27.33;;;10.70;99.90;;;;;;5002549;28;20476;-62
2021/10/12 06:28:04;;;;;;;43.03;27.40;;;10.60;99.90;;;;;;5003578;28;20208;-62
2021/10/12 06:30:30;;;;;;;50.10;28.20;;;10.70;99.90;;;;;;5000400;28;20447;-62
2021/10/12 06:32:56;;;;;;;48.20;30.07;;;10.70;99.90;;;;;;5004022;28;20483;-62
2021/10/12 06:35:22;;;;;;;48.73;28.13;;;10.70;99.90;;;;;;4997402;28;20231;-61
2021/10/12 06:37:48;;;;;;;51.03;29.23;;;10.90;99.90;;;;;;5002079;28;20497;-62
2021/10/12 06:40:14;;;;;;;43.90;29.03;;;10.80;99.90;;;;;;4998904;28;20453;-61
2021/10/12 06:42:40;;;;;;;47.17;29.83;;;10.80;99.90;;;;;;4995105;28;20950;-62
2021/10/12 06:45:06;;;;;;;50.37;28.27;;;10.80;99.90;;;;;;4997837;28;20355;-62
2021/10/12 06:47:31;;;;;;;50.47;27.13;;;10.80;99.90;;;;;;4995020;28;20456;-62
2021/10/12 06:49:57;;;;;;;59.23;28.33;;;10.80;99.90;;;;;;4996846;28;20436;-62
2021/10/12 06:52:23;;;;;;;46.17;27.87;;;10.80;99.90;;;;;;4999433;28;20631;-62
2021/10/12 06:54:50;;;;;;;41.00;25.37;;;10.80;99.90;;;;;;4996783;28;20204;-63
2021/10/12 06:57:16;;;;;;;42.40;26.37;;;10.80;99.90;;;;;;4995857;28;20216;-62
2021/10/12 06:59:41;;;;;;;40.77;26.37;;;10.80;99.90;;;;;;4998158;28;20444;-62
2021/10/12 07:02:07;;;;;;;42.13;25.67;;;10.80;99.90;;;;;;4995835;28;20479;-62
2021/10/12 07:04:33;;;;;;;42.53;25.87;;;10.70;99.90;;;;;;4999260;28;20185;-62
2021/10/12 07:07:00;;;;;;;40.70;25.83;;;10.80;99.90;;;;;;4997896;28;20455;-60
2021/10/12 07:09:25;;;;;;;42.83;25.90;;;10.70;99.90;;;;;;4996342;28;20672;-61
2021/10/12 07:11:51;;;;;;;42.77;24.07;;;10.70;99.90;;;;;;5001949;28;20524;-61
2021/10/12 07:14:17;;;;;;;44.30;26.50;;;10.70;99.90;;;;;;4996361;28;20181;-61
2021/10/12 07:16:42;;;;;;;38.67;23.57;;;10.70;99.90;;;;;;4996658;28;20189;-61
2021/10/12 07:19:08;;;;;;;35.47;23.20;;;10.70;99.90;;;;;;5000857;28;20220;-62
2021/10/12 07:21:34;;;;;;;36.20;22.77;;;10.70;99.90;;;;;;5000948;28;20703;-62
2021/10/12 07:24:01;;;;;;;45.03;24.43;;;10.70;99.90;;;;;;4998115;28;20440;-63
2021/10/12 07:26:27;;;;;;;43.90;24.70;;;10.60;99.90;;;;;;4999130;28;22296;-62
2021/10/12 07:28:55;;;;;;;38.37;24.20;;;10.70;99.90;;;;;;5001390;28;20505;-62
2021/10/12 07:31:21;;;;;;;38.83;23.57;;;10.60;99.90;;;;;;4997751;28;20424;-61
2021/10/12 07:33:47;;;;;;;37.60;23.67;;;10.70;99.90;;;;;;4996184;28;20821;-61
2021/10/12 07:36:13;;;;;;;42.83;25.83;;;10.70;99.90;;;;;;4998276;28;20292;-66
2021/10/12 07:38:38;;;;;;;34.40;23.50;;;10.80;99.90;;;;;;5001299;28;20206;-62
2021/10/12 07:41:04;;;;;;;35.80;22.57;;;10.80;99.90;;;;;;4994083;28;20200;-62
2021/10/12 07:43:30;;;;;;;32.30;21.27;;;10.70;99.90;;;;;;5003745;28;20180;-62
2021/10/12 07:45:55;;;;;;;39.23;22.90;;;10.60;99.90;;;;;;5000371;28;20213;-62
2021/10/12 07:48:23;;;;;;;38.27;24.40;;;10.70;99.90;;;;;;4993788;28;20209;-61
2021/10/12 07:50:49;;;;;;;35.70;22.87;;;10.80;99.90;;;;;;4993562;28;20201;-62
2021/10/12 07:53:16;;;;;;;33.00;21.93;;;10.80;99.90;;;;;;4992015;28;20440;-61
2021/10/12 07:55:48;;;;;;;34.90;21.47;;;10.80;99.90;;;;;;4991440;28;20474;-62
2021/10/12 07:58:14;;;;;;;31.90;22.63;;;10.80;99.90;;;;;;5001133;28;20867;-62
2021/10/12 08:00:40;;;;;;;33.23;20.53;;;10.80;99.90;;;;;;4997112;28;20507;-62
2021/10/12 08:03:07;;;;;;;38.00;20.60;;;10.90;99.90;;;;;;4999412;28;20201;-61
2021/10/12 08:05:33;;;;;;;34.93;22.03;;;11.00;99.90;;;;;;4998492;28;20221;-61
2021/10/12 08:07:59;;;;;;;32.00;19.90;;;11.00;99.90;;;;;;4993649;28;20987;-61
2021/10/12 08:10:26;;;;;;;38.70;21.57;;;11.10;99.90;;;;;;4997834;28;20558;-62
2021/10/12 08:12:55;;;;;;;30.30;18.60;;;11.10;99.90;;;;;;4995099;28;20181;-62
2021/10/12 08:15:21;;;;;;;28.93;19.13;;;11.20;99.90;;;;;;4993880;28;20463;-62
2021/10/12 08:17:47;;;;;;;30.03;20.40;;;11.20;99.90;;;;;;5000249;28;20464;-62
2021/10/12 08:20:13;;;;;;;25.67;17.03;;;11.30;99.90;;;;;;4993000;28;20456;-62
2021/10/12 08:22:39;;;;;;;29.60;18.40;;;11.20;99.90;;;;;;4995063;28;20525;-62
2021/10/12 08:25:08;;;;;;;29.67;19.80;;;11.30;99.90;;;;;;4989555;28;20475;-63
2021/10/12 08:27:35;;;;;;;28.63;18.20;;;11.30;99.90;;;;;;4990810;28;20235;-63
2021/10/12 08:30:01;;;;;;;27.20;17.27;;;11.40;99.90;;;;;;5010426;28;20448;-62
2021/10/12 08:32:26;;;;;;;25.77;17.97;;;11.40;99.90;;;;;;4997608;28;20531;-63
2021/10/12 08:34:52;;;;;;;26.13;17.03;;;11.30;99.90;;;;;;4997086;28;20488;-63
2021/10/12 08:37:18;;;;;;;26.13;18.23;;;11.30;99.90;;;;;;5002241;28;20224;-61
2021/10/12 08:39:44;;;;;;;32.30;18.70;;;11.30;99.90;;;;;;5005018;28;20212;-61
2021/10/12 08:42:32;;;;;;;29.60;19.13;;;11.30;99.90;;;;;;5001317;28;20236;-62
2021/10/12 08:45:07;;;;;;;29.37;17.63;;;11.20;99.90;;;;;;5000119;28;20471;-62
2021/10/12 08:47:35;;;;;;;28.20;17.47;;;11.40;99.90;;;;;;4997480;28;20490;-63
2021/10/12 08:50:05;;;;;;;26.77;19.03;;;11.40;99.90;;;;;;5004410;28;20545;-62
2021/10/12 08:52:30;;;;;;;31.27;18.33;;;11.40;99.90;;;;;;4997158;28;20535;-63
2021/10/12 08:54:57;;;;;;;30.83;18.40;;;11.40;99.90;;;;;;4999956;28;20535;-63
2021/10/12 08:57:43;;;;;;;30.60;19.20;;;11.40;99.90;;;;;;5000779;28;20562;-64
2021/10/12 09:00:12;;;;;;;31.80;17.53;;;11.40;99.90;;;;;;5006093;28;20572;-64
2021/10/12 09:02:57;;;;;;;28.93;17.43;;;11.50;99.90;;;;;;5006552;28;20508;-64
2021/10/12 09:05:25;;;;;;;26.93;16.83;;;11.50;99.90;;;;;;5004798;28;20493;-64
2021/10/12 09:07:51;;;;;;;26.50;17.50;;;11.50;99.90;;;;;;5001740;28;20478;-64
2021/10/12 09:10:22;;;;;;;27.20;18.60;;;11.50;99.90;;;;;;5007083;28;20459;-64
2021/10/12 09:12:49;;;;;;;33.17;19.10;;;11.60;99.90;;;;;;5006499;28;20853;-64
2021/10/12 09:15:16;;;;;;;24.13;17.07;;;11.70;99.90;;;;;;5008116;28;20451;-65
2021/10/12 09:17:43;;;;;;;32.00;18.37;;;11.70;99.90;;;;;;5008929;28;20555;-65
2021/10/12 09:20:12;;;;;;;28.00;16.73;;;11.70;99.90;;;;;;5002424;28;20694;-65
2021/10/12 09:22:39;;;;;;;28.30;16.33;;;11.70;99.90;;;;;;5008756;28;21280;-65
2021/10/12 09:25:08;;;;;;;22.77;15.90;;;11.70;99.90;;;;;;5008174;28;20510;-65
2021/10/12 09:27:57;;;;;;;26.57;17.37;;;11.80;99.90;;;;;;5009260;28;20857;-65
2021/10/12 09:30:31;;;;;;;20.67;16.23;;;11.70;99.90;;;;;;5007879;28;20439;-64
2021/10/12 09:33:07;;;;;;;26.27;16.77;;;11.70;99.90;;;;;;5011988;28;20806;-65
2021/10/12 09:35:34;;;;;;;25.20;15.00;;;11.80;99.90;;;;;;5005541;28;20486;-64
2021/10/12 09:38:01;;;;;;;24.80;16.77;;;11.80;99.90;;;;;;5005515;28;20462;-65
2021/10/12 09:40:27;;;;;;;23.90;16.17;;;11.70;99.90;;;;;;5010045;28;20867;-63
2021/10/12 09:42:53;;;;;;;26.67;17.47;;;11.80;99.90;;;;;;5009156;28;20584;-64
2021/10/12 09:45:31;;;;;;;22.33;14.90;;;11.80;99.90;;;;;;5010336;28;20216;-63
2021/10/12 09:47:57;;;;;;;22.80;15.27;;;11.80;99.90;;;;;;5003564;28;20299;-65
2021/10/12 09:50:32;;;;;;;23.17;16.80;;;11.80;99.90;;;;;;5006974;28;22015;-65
2021/10/12 09:52:59;;;;;;;27.63;17.13;;;11.90;99.90;;;;;;5000093;28;20660;-64
2021/10/12 09:55:37;;;;;;;25.53;15.77;;;11.90;99.90;;;;;;5007604;28;20590;-64
2021/10/12 09:58:04;;;;;;;28.33;17.20;;;12.00;99.90;;;;;;5004918;28;20455;-64
2021/10/12 10:00:30;;;;;;;26.60;19.10;;;12.00;99.90;;;;;;5010453;28;20934;-63
2021/10/12 10:03:00;;;;;;;23.10;16.33;;;12.10;99.90;;;;;;5008510;28;20478;-63
2021/10/12 10:05:26;;;;;;;25.70;17.07;;;12.10;99.90;;;;;;5010557;28;20471;-64
2021/10/12 10:07:54;;;;;;;21.23;15.83;;;12.20;99.90;;;;;;5011919;28;20826;-65
2021/10/12 10:10:20;;;;;;;21.37;16.13;;;12.20;99.90;;;;;;5006605;28;20475;-63
2021/10/12 10:12:46;;;;;;;23.67;16.80;;;12.10;99.90;;;;;;5009173;28;20441;-63
2021/10/12 10:15:12;;;;;;;21.47;15.70;;;12.20;99.90;;;;;;5009206;28;20188;-64
2021/10/12 10:17:38;;;;;;;25.23;16.07;;;12.30;99.90;;;;;;5004279;28;20217;-64
2021/10/12 10:20:05;;;;;;;26.90;15.93;;;12.40;99.90;;;;;;5004936;28;20188;-65
2021/10/12 10:22:34;;;;;;;18.47;14.93;;;12.30;99.90;;;;;;5008966;28;20474;-63
2021/10/12 10:25:00;;;;;;;18.93;14.23;;;12.30;99.90;;;;;;5003740;28;20478;-63
2021/10/12 10:27:36;;;;;;;28.23;18.23;;;12.10;99.90;;;;;;5002488;28;20482;-63
2021/10/12 10:30:14;;;;;;;22.90;17.00;;;12.10;99.90;;;;;;5006413;28;20447;-65
2021/10/12 10:32:51;;;;;;;21.60;16.03;;;12.20;99.90;;;;;;5005574;28;20447;-63
2021/10/12 10:35:31;;;;;;;22.90;15.57;;;12.10;99.90;;;;;;5003856;28;20772;-64
2021/10/12 10:38:20;;;;;;;18.23;14.07;;;12.10;99.90;;;;;;5000848;28;20491;-63
2021/10/12 10:40:50;;;;;;;22.37;15.13;;;12.20;99.90;;;;;;5002979;28;20962;-64
2021/10/12 10:43:16;;;;;;;22.60;14.87;;;12.20;99.90;;;;;;5005270;28;20440;-64
2021/10/12 10:45:47;;;;;;;22.23;16.03;;;12.30;99.90;;;;;;4999235;28;20920;-63
2021/10/12 10:48:15;;;;;;;26.87;14.53;;;12.30;99.90;;;;;;5033146;23;20239;-58
2021/10/12 10:50:42;;;;;;;19.00;14.90;;;12.30;99.90;;;;;;5020996;28;20430;-58
2021/10/12 10:53:10;;;;;;;18.57;15.20;;;12.30;99.90;;;;;;5020488;28;20447;-61
2021/10/12 10:55:41;;;;;;;22.03;14.30;;;12.30;99.90;;;;;;5020747;28;20507;-63
2021/10/12 10:58:17;;;;;;;24.63;16.47;;;12.30;99.90;;;;;;5025912;28;20513;-60
2021/10/12 11:00:52;;;;;;;19.50;14.60;;;12.40;99.90;;;;;;5028311;28;20801;-62
2021/10/12 11:03:31;;;;;;;22.40;14.63;;;12.50;99.90;;;;;;5019051;28;20442;-65
2021/10/12 11:06:01;;;;;;;20.60;15.40;;;12.70;99.90;;;;;;5025414;28;20470;-60
2021/10/12 11:08:32;;;;;;;19.60;13.83;;;12.80;99.90;;;;;;5021289;28;20585;-65
2021/10/12 11:11:07;;;;;;;22.50;15.50;;;13.10;99.90;;;;;;5018948;28;20845;-63
2021/10/12 11:13:41;;;;;;;20.03;14.60;;;13.00;99.90;;;;;;5022808;28;20488;-64
2021/10/12 11:16:17;;;;;;;20.27;13.97;;;12.90;99.90;;;;;;5018174;28;20933;-64
2021/10/12 11:18:44;;;;;;;23.40;14.77;;;12.90;99.90;;;;;;5022017;28;21048;-59
2021/10/12 11:21:12;;;;;;;16.87;13.40;;;12.90;99.90;;;;;;5017319;28;20466;-59
2021/10/12 11:23:40;;;;;;;23.20;14.37;;;12.90;99.90;;;;;;5019660;28;20500;-60
2021/10/12 11:26:14;;;;;;;21.83;13.90;;;12.90;99.90;;;;;;5021951;28;20922;-60
2021/10/12 11:28:49;;;;;;;20.37;14.60;;;12.80;99.90;;;;;;5020840;28;20498;-59
2021/10/12 11:31:18;;;;;;;23.43;14.50;;;12.80;99.90;;;;;;5023467;28;20435;-59
2021/10/12 11:33:49;;;;;;;18.60;13.97;;;13.00;99.90;;;;;;5027768;28;20947;-61
2021/10/12 11:36:27;;;;;;;20.90;14.27;;;13.20;99.90;;;;;;5020673;28;20822;-62
2021/10/12 11:38:56;;;;;;;22.30;14.17;;;13.30;99.90;;;;;;5016430;28;20463;-64
2021/10/12 11:41:37;;;;;;;20.97;15.23;;;13.40;99.90;;;;;;5017077;28;20486;-64
2021/10/12 11:44:23;;;;;;;21.17;14.80;;;13.40;99.90;;;;;;5015806;28;20873;-64
2021/10/12 11:46:54;;;;;;;20.90;14.50;;;13.50;99.90;;;;;;5020348;28;20479;-63
2021/10/12 11:49:23;;;;;;;16.90;11.87;;;13.60;99.90;;;;;;5019677;28;20934;-59
2021/10/12 11:51:49;;;;;;;10.97;7.93;;;13.60;99.90;;;;;;5016511;28;20439;-59
2021/10/12 11:54:25;;;;;;;13.20;10.97;;;13.30;99.90;;;;;;5018716;28;20442;-59
2021/10/12 11:56:55;;;;;;;19.43;12.33;;;13.30;99.90;;;;;;5023613;28;20431;-64
2021/10/12 11:59:21;;;;;;;13.70;11.90;;;13.20;99.90;;;;;;5024060;28;20477;-59
2021/10/12 12:01:47;;;;;;;20.50;12.33;;;13.40;99.90;;;;;;5022228;28;20501;-61
2021/10/12 12:04:35;;;;;;;17.50;11.30;;;13.50;99.90;;;;;;5023215;28;20193;-60
2021/10/12 12:07:04;;;;;;;15.50;11.40;;;13.50;99.90;;;;;;5018506;28;20830;-65
2021/10/12 12:09:31;;;;;;;13.33;10.60;;;13.60;99.90;;;;;;5020345;28;20921;-65
2021/10/12 12:12:02;;;;;;;11.10;8.93;;;13.80;99.90;;;;;;5023247;28;20427;-63
2021/10/12 12:14:29;;;;;;;17.73;10.00;;;14.00;99.90;;;;;;5023529;28;20472;-62
2021/10/12 12:17:17;;;;;;;10.67;8.40;;;14.10;99.90;;;;;;5025165;28;20452;-62
2021/10/12 12:19:51;;;;;;;18.23;9.83;;;14.30;99.90;;;;;;5023903;28;20447;-58
2021/10/12 12:22:18;;;;;;;12.90;9.73;;;14.30;99.90;;;;;;5016902;28;20460;-58
2021/10/12 12:25:18;;;;;;;10.57;8.70;;;14.10;99.90;;;;;;5017735;28;20801;-59
2021/10/12 12:28:01;;;;;;;10.73;8.17;;;14.20;99.90;;;;;;4997464;28;20499;-59
2021/10/12 12:30:41;;;;;;;10.70;8.00;;;14.10;99.90;;;;;;5016339;28;20873;-59
2021/10/12 12:33:07;;;;;;;12.13;8.27;;;13.80;99.90;;;;;;5020167;28;22202;-61